Time;durP1;ratioP1;P1;durP2;ratioP2;P2;SDS_P1;SDS_P2;PMS_P1;PMS_P2;Temp;Humidity;BMP_temperature;BMP_pressure;BME280_temperature;BME280_humidity;BME280_pressure;Samples;Min_cycle;Max_cycle;Signal;HPM_P1;HPM_P2
2023/11/16 00:00:32;;;;;;;7.07;2.70;;;;;;;7.72;60.99;93937.81;4952059;28;20478;-75
2023/11/16 00:02:58;;;;;;;2.80;2.22;;;;;;;7.53;60.02;93895.50;4950477;28;20030;-76
2023/11/16 00:05:25;;;;;;;1.75;1.52;;;;;;;7.92;59.57;93932.19;4957511;28;20049;-76
2023/11/16 00:07:50;;;;;;;2.80;1.50;;;;;;;7.57;60.03;93912.38;4953333;28;20046;-76
2023/11/16 00:10:16;;;;;;;1.50;1.40;;;;;;;7.52;58.96;93909.81;4955752;28;20022;-75
2023/11/16 00:12:42;;;;;;;4.20;1.10;;;;;;;7.60;58.77;93917.09;4955706;28;20145;-75
2023/11/16 00:15:08;;;;;;;1.20;1.10;;;;;;;7.49;59.30;93925.47;4957105;28;20035;-75
2023/11/16 00:17:37;;;;;;;1.63;1.52;;;;;;;7.26;59.60;93927.19;4953014;28;20485;-75
2023/11/16 00:20:07;;;;;;;2.25;1.55;;;;;;;7.37;59.17;93944.47;4957264;28;20027;-77
2023/11/16 00:22:33;;;;;;;4.15;1.30;;;;;;;7.13;58.60;93912.06;4951669;28;20328;-75
2023/11/16 00:24:59;;;;;;;1.98;1.80;;;;;;;7.21;59.47;93969.59;4970751;28;20027;-76
2023/11/16 00:27:26;;;;;;;3.03;1.55;;;;;;;6.82;60.37;93941.59;4960658;28;20031;-75
2023/11/16 00:29:52;;;;;;;2.08;1.67;;;;;;;6.93;60.34;93959.97;4954350;28;20114;-76
2023/11/16 00:32:18;;;;;;;1.63;1.40;;;;;;;6.94;60.32;93950.97;4956599;28;20125;-76
2023/11/16 00:34:44;;;;;;;1.58;1.30;;;;;;;6.85;60.28;93953.44;4955791;28;20039;-76
2023/11/16 00:37:10;;;;;;;4.05;1.20;;;;;;;6.80;60.68;93962.22;4956132;28;20034;-76
2023/11/16 00:39:38;;;;;;;3.17;1.40;;;;;;;6.88;60.66;93967.97;4957092;28;20041;-75
2023/11/16 00:42:04;;;;;;;2.25;1.70;;;;;;;6.79;60.50;93939.53;4954104;28;20121;-76
2023/11/16 00:44:30;;;;;;;1.40;1.30;;;;;;;6.76;59.77;93924.22;4953974;28;20523;-75
2023/11/16 00:46:55;;;;;;;1.38;1.27;;;;;;;6.77;59.72;93936.38;4956006;28;20062;-76
2023/11/16 00:49:21;;;;;;;1.35;1.25;;;;;;;6.51;59.60;93906.06;4956169;28;20493;-75
2023/11/16 00:51:47;;;;;;;2.80;1.95;;;;;;;6.95;59.22;93955.16;4957106;28;20046;-76
2023/11/16 00:54:12;;;;;;;2.75;1.50;;;;;;;6.96;58.91;93957.53;4954955;28;20057;-75
2023/11/16 00:56:38;;;;;;;1.90;1.70;;;;;;;7.01;58.20;93956.66;4956328;28;20557;-75
2023/11/16 00:59:05;;;;;;;2.15;1.70;;;;;;;7.04;58.60;93972.75;4954923;28;20043;-76
2023/11/16 01:01:32;;;;;;;1.50;1.40;;;;;;;7.00;57.89;93960.38;4957990;28;20059;-77
2023/11/16 01:04:00;;;;;;;1.70;1.50;;;;;;;7.02;58.17;93974.91;4952808;28;20117;-75
2023/11/16 01:06:29;;;;;;;1.73;1.40;;;;;;;6.88;57.55;93931.75;4954447;28;20067;-76
2023/11/16 01:08:56;;;;;;;1.50;1.40;;;;;;;7.12;56.63;93939.56;4955313;28;20078;-76
2023/11/16 01:11:27;;;;;;;2.55;1.63;;;;;;;7.23;55.86;93952.38;4955526;28;20046;-75
2023/11/16 01:13:54;;;;;;;1.58;1.30;;;;;;;7.07;56.12;93972.19;4956325;28;20055;-75
2023/11/16 01:16:22;;;;;;;1.50;1.00;;;;;;;7.17;56.36;93987.13;4953959;28;20544;-75
2023/11/16 01:18:50;;;;;;;1.42;1.17;;;;;;;7.24;55.98;93990.16;4956264;28;20626;-76
2023/11/16 01:21:17;;;;;;;2.22;1.20;;;;;;;7.06;56.50;93973.25;4954879;28;20058;-76
2023/11/16 01:23:45;;;;;;;1.40;1.30;;;;;;;7.19;56.47;93980.44;4956519;28;20493;-76
2023/11/16 01:26:17;;;;;;;1.95;1.60;;;;;;;7.15;57.34;93990.03;4952586;28;20038;-75
2023/11/16 01:28:46;;;;;;;1.17;1.08;;;;;;;7.22;57.59;93974.59;4951671;28;20126;-76
2023/11/16 01:31:19;;;;;;;1.80;1.20;;;;;;;7.20;57.71;93970.66;4953462;28;20109;-75
2023/11/16 01:33:44;;;;;;;3.97;1.40;;;;;;;7.17;57.31;93985.25;4957383;28;20489;-75
2023/11/16 01:36:10;;;;;;;1.30;1.20;;;;;;;7.18;57.03;93978.91;4947241;28;20137;-76
2023/11/16 01:38:39;;;;;;;1.35;1.20;;;;;;;7.08;56.86;93983.56;4956973;28;20098;-75
2023/11/16 01:41:09;;;;;;;1.40;1.30;;;;;;;7.08;56.78;93983.56;4956000;28;20247;-75
2023/11/16 01:43:37;;;;;;;1.25;1.13;;;;;;;7.09;56.52;94003.63;4956354;28;20118;-75
2023/11/16 01:46:07;;;;;;;1.17;1.05;;;;;;;7.15;56.54;94005.13;4956581;28;20028;-75
2023/11/16 01:48:34;;;;;;;1.83;1.40;;;;;;;7.27;56.32;94002.84;4954440;28;20038;-75
2023/11/16 01:51:06;;;;;;;1.63;1.48;;;;;;;7.37;55.98;94002.69;4952907;28;20037;-75
2023/11/16 01:53:39;;;;;;;1.67;1.42;;;;;;;7.12;56.40;93981.91;4950100;28;20386;-75
2023/11/16 01:56:06;;;;;;;1.15;1.15;;;;;;;7.19;56.72;93998.22;4952800;28;20383;-75
2023/11/16 01:58:33;;;;;;;2.03;1.30;;;;;;;7.13;56.68;93994.84;4953020;28;20152;-75
2023/11/16 02:00:58;;;;;;;1.33;1.23;;;;;;;7.22;57.30;93985.19;4949955;28;20023;-75
2023/11/16 02:03:24;;;;;;;1.48;1.30;;;;;;;7.16;56.37;93991.63;4952461;28;20034;-75
2023/11/16 02:05:49;;;;;;;1.85;1.25;;;;;;;6.99;57.11;94006.41;4953016;28;20061;-77
2023/11/16 02:08:15;;;;;;;1.50;1.40;;;;;;;7.00;57.18;93994.75;4954598;28;20030;-75
2023/11/16 02:10:41;;;;;;;1.30;1.10;;;;;;;7.12;57.06;94000.41;4950832;28;20048;-75
2023/11/16 02:13:18;;;;;;;1.67;1.55;;;;;;;7.09;57.36;94006.28;4955385;28;20796;-76
2023/11/16 02:15:44;;;;;;;1.48;1.38;;;;;;;7.21;57.38;94019.84;4949114;28;20046;-76
2023/11/16 02:18:14;;;;;;;1.27;1.10;;;;;;;7.20;57.43;94010.34;4950764;28;20043;-75
2023/11/16 02:20:41;;;;;;;2.55;1.20;;;;;;;7.15;57.90;94019.13;4953895;28;20039;-76
2023/11/16 02:23:07;;;;;;;1.35;1.17;;;;;;;7.12;58.09;94008.34;4947377;28;20064;-75
2023/11/16 02:25:42;;;;;;;1.65;1.55;;;;;;;7.09;58.30;94007.03;4932532;28;20042;-76
2023/11/16 02:28:07;;;;;;;;;;;;;;;7.19;58.38;94014.06;4953062;28;20526;-77
2023/11/16 02:30:32;;;;;;;2.05;1.50;;;;;;;6.93;59.39;94011.00;4953352;28;20880;-75
2023/11/16 02:32:58;;;;;;;2.25;1.60;;;;;;;6.92;59.27;93990.91;4954184;28;20603;-75
2023/11/16 02:35:23;;;;;;;1.98;1.60;;;;;;;6.86;59.69;93990.19;4958020;28;20065;-74
2023/11/16 02:37:49;;;;;;;2.78;1.55;;;;;;;7.01;59.42;94006.91;4955407;28;20246;-75
2023/11/16 02:40:16;;;;;;;1.70;1.50;;;;;;;7.12;59.07;94016.28;4955212;28;20034;-76
2023/11/16 02:42:43;;;;;;;1.63;1.40;;;;;;;7.12;59.45;94018.94;4953954;28;20026;-75
2023/11/16 02:45:10;;;;;;;3.75;1.83;;;;;;;7.12;58.92;94021.56;4956243;28;20061;-76
2023/11/16 02:47:36;;;;;;;1.75;1.45;;;;;;;7.12;59.46;94042.72;4954183;28;20049;-75
2023/11/16 02:50:03;;;;;;;2.03;1.45;;;;;;;7.13;59.20;94023.16;4964198;28;20038;-75
2023/11/16 02:52:29;;;;;;;2.58;1.73;;;;;;;7.13;59.48;94039.03;4954462;28;20591;-76
2023/11/16 02:54:54;;;;;;;2.95;2.20;;;;;;;7.28;59.04;94049.38;4962448;28;20079;-76
2023/11/16 02:57:20;;;;;;;2.63;1.85;;;;;;;7.17;58.76;94042.66;4949758;28;20493;-75
2023/11/16 02:59:47;;;;;;;2.72;2.10;;;;;;;7.15;59.56;94031.56;4951699;28;20035;-75
2023/11/16 03:02:14;;;;;;;3.20;2.55;;;;;;;7.29;58.87;94029.78;4947692;28;20038;-76
2023/11/16 03:04:40;;;;;;;3.45;1.95;;;;;;;7.21;58.84;94038.38;4955716;28;20043;-75
2023/11/16 03:07:06;;;;;;;2.45;1.85;;;;;;;7.27;58.24;94034.59;4952261;28;20615;-75
2023/11/16 03:09:32;;;;;;;4.00;2.13;;;;;;;6.79;57.54;93976.53;4954363;28;20058;-76
2023/11/16 03:11:57;;;;;;;2.00;1.50;;;;;;;7.07;57.66;94046.22;4953148;28;20750;-75
2023/11/16 03:14:23;;;;;;;2.53;1.35;;;;;;;6.95;57.81;94053.00;4960534;28;20515;-76
2023/11/16 03:16:55;;;;;;;4.20;2.53;;;;;;;6.76;58.13;94006.16;4951073;28;20053;-76
2023/11/16 03:19:25;;;;;;;2.63;2.00;;;;;;;6.96;57.61;94044.00;4958807;28;20022;-76
2023/11/16 03:21:50;;;;;;;2.78;1.40;;;;;;;7.02;57.02;94033.06;4959479;28;20049;-75
2023/11/16 03:24:15;;;;;;;4.43;2.85;;;;;;;7.00;56.87;94029.91;4955215;28;20023;-76
2023/11/16 03:26:41;;;;;;;3.25;2.35;;;;;;;7.03;56.76;94039.16;4958099;28;20097;-76
2023/11/16 03:29:07;;;;;;;3.13;2.28;;;;;;;7.04;56.65;94053.94;4954136;28;20331;-75
2023/11/16 03:31:35;;;;;;;3.85;2.65;;;;;;;6.94;56.17;94040.88;4972995;28;20034;-76
2023/11/16 03:34:04;;;;;;;2.10;1.90;;;;;;;6.88;56.41;94042.00;4957646;28;20026;-76
2023/11/16 03:36:30;;;;;;;2.70;1.83;;;;;;;6.58;57.35;94043.13;4955580;28;20039;-75
2023/11/16 03:38:57;;;;;;;3.13;2.75;;;;;;;6.74;57.60;94069.13;4957395;28;20046;-75
2023/11/16 03:41:23;;;;;;;3.13;2.30;;;;;;;6.70;57.56;94046.94;4961134;28;20042;-75
2023/11/16 03:43:49;;;;;;;2.10;1.52;;;;;;;6.73;57.43;94049.03;4956616;28;20417;-76
2023/11/16 03:46:14;;;;;;;1.83;1.70;;;;;;;6.77;56.48;94047.41;4958841;28;20607;-76
2023/11/16 03:48:40;;;;;;;4.80;3.50;;;;;;;6.98;56.83;94066.44;4956414;28;20066;-75
2023/11/16 03:51:06;;;;;;;3.85;2.50;;;;;;;6.77;57.26;94065.91;4951375;28;20394;-75
2023/11/16 03:53:32;;;;;;;6.07;4.50;;;;;;;6.50;57.24;94044.56;4947234;28;20978;-75
2023/11/16 03:55:59;;;;;;;2.65;2.45;;;;;;;6.62;57.95;94081.94;4956867;28;20027;-76
2023/11/16 03:58:25;;;;;;;3.15;1.88;;;;;;;6.55;58.82;94080.72;4957206;28;20030;-75
2023/11/16 04:00:52;;;;;;;5.03;3.35;;;;;;;6.69;58.36;94065.75;4952391;28;20038;-76
2023/11/16 04:03:17;;;;;;;3.40;2.50;;;;;;;6.83;57.77;94095.72;4954834;28;20149;-75
2023/11/16 04:05:43;;;;;;;4.05;2.97;;;;;;;6.62;58.71;94103.09;4957719;28;20043;-75
2023/11/16 04:08:10;;;;;;;4.15;2.95;;;;;;;6.61;58.62;94106.78;4954713;28;20371;-75
2023/11/16 04:10:35;;;;;;;4.80;2.30;;;;;;;6.80;57.61;94104.97;4954447;28;20180;-75
2023/11/16 04:13:02;;;;;;;4.22;2.28;;;;;;;6.79;57.27;94111.38;4957338;28;20186;-76
2023/11/16 04:15:29;;;;;;;2.10;1.77;;;;;;;6.74;57.07;94087.63;4956214;28;20454;-75
2023/11/16 04:17:54;;;;;;;2.85;1.60;;;;;;;6.85;56.80;94099.63;4956870;28;20031;-76
2023/11/16 04:20:20;;;;;;;1.90;1.70;;;;;;;6.99;56.81;94123.56;4959008;28;20661;-75
2023/11/16 04:22:45;;;;;;;2.70;1.80;;;;;;;6.95;56.37;94111.16;4954994;28;20537;-74
2023/11/16 04:25:34;;;;;;;1.73;1.60;;;;;;;6.84;56.19;94103.38;4954496;28;20026;-75
2023/11/16 04:28:04;;;;;;;2.70;2.20;;;;;;;6.88;56.40;94089.59;4952744;28;20050;-76
2023/11/16 04:30:34;;;;;;;3.58;2.10;;;;;;;6.88;56.10;94095.66;4956920;28;20043;-75
2023/11/16 04:33:01;;;;;;;2.80;2.33;;;;;;;6.91;55.60;94104.88;4954317;28;20039;-75
2023/11/16 04:35:27;;;;;;;6.50;2.92;;;;;;;6.70;55.97;94065.44;4954621;28;20054;-75
2023/11/16 04:37:55;;;;;;;3.20;2.30;;;;;;;6.83;56.34;94108.94;4956505;28;20034;-75
2023/11/16 04:40:25;;;;;;;3.90;2.88;;;;;;;6.51;57.24;94106.88;4957913;28;20394;-75
2023/11/16 04:42:50;;;;;;;3.58;2.65;;;;;;;6.64;57.23;94130.03;4956965;28;20070;-75
2023/11/16 04:45:16;;;;;;;2.65;2.13;;;;;;;6.73;56.82;94120.41;4954807;28;20482;-75
2023/11/16 04:47:46;;;;;;;2.65;2.35;;;;;;;6.81;55.81;94122.44;4955707;28;20093;-75
2023/11/16 04:50:16;;;;;;;2.35;1.40;;;;;;;6.71;55.59;94117.25;4958924;28;20611;-75
2023/11/16 04:52:42;;;;;;;1.90;1.52;;;;;;;6.74;54.82;94100.84;4955548;28;20133;-75
2023/11/16 04:55:08;;;;;;;2.47;1.60;;;;;;;6.89;54.07;94128.19;4955590;28;20030;-77
2023/11/16 04:57:33;;;;;;;1.85;1.40;;;;;;;6.62;54.24;94121.59;4956545;28;20520;-76
2023/11/16 04:59:58;;;;;;;1.92;1.50;;;;;;;6.73;53.69;94144.19;4956827;28;20106;-75
2023/11/16 05:02:24;;;;;;;3.92;1.60;;;;;;;6.63;53.50;94130.28;4958351;28;20031;-75
2023/11/16 05:04:51;;;;;;;2.17;1.42;;;;;;;6.75;53.17;94144.69;4956017;28;20160;-77
2023/11/16 05:07:17;;;;;;;2.03;1.80;;;;;;;6.76;53.40;94150.78;4956397;28;20051;-77
2023/11/16 05:09:42;;;;;;;1.70;1.60;;;;;;;6.53;53.33;94136.47;4955221;28;20027;-76
2023/11/16 05:12:08;;;;;;;2.97;1.42;;;;;;;6.55;54.27;94158.13;4948617;28;20039;-75
2023/11/16 05:14:34;;;;;;;2.30;1.90;;;;;;;6.58;53.94;94139.06;4951910;28;20117;-75
2023/11/16 05:17:01;;;;;;;2.05;1.40;;;;;;;6.68;53.95;94154.03;4952542;28;20082;-75
2023/11/16 05:19:26;;;;;;;1.58;1.48;;;;;;;6.63;54.05;94136.38;4935477;28;20027;-75
2023/11/16 05:21:53;;;;;;;3.28;1.50;;;;;;;6.70;53.28;94147.38;4955405;28;20414;-76
2023/11/16 05:24:19;;;;;;;1.20;1.10;;;;;;;6.59;53.63;94143.28;4948128;28;20038;-75
2023/11/16 05:26:44;;;;;;;2.90;1.10;;;;;;;6.40;54.32;94139.78;4953290;28;20372;-75
2023/11/16 05:29:10;;;;;;;1.88;1.25;;;;;;;6.67;53.82;94142.66;4954517;28;20581;-76
2023/11/16 05:31:36;;;;;;;2.85;1.40;;;;;;;6.44;54.77;94159.28;4955020;28;20564;-76
2023/11/16 05:34:02;;;;;;;1.38;1.27;;;;;;;6.31;54.89;94165.22;4958717;28;20465;-76
2023/11/16 05:36:29;;;;;;;1.30;1.20;;;;;;;6.46;55.13;94154.50;4955524;28;20613;-75
2023/11/16 05:38:55;;;;;;;3.95;1.48;;;;;;;6.41;55.25;94170.41;4955013;28;20046;-76
2023/11/16 05:41:22;;;;;;;2.75;1.40;;;;;;;6.52;55.19;94165.81;4955593;28;20066;-76
2023/11/16 05:43:48;;;;;;;2.88;1.27;;;;;;;6.46;55.12;94175.63;4956974;28;20042;-76
2023/11/16 05:46:14;;;;;;;1.73;1.33;;;;;;;6.40;55.34;94171.47;4955217;28;20038;-76
2023/11/16 05:48:39;;;;;;;2.42;1.38;;;;;;;6.39;55.24;94183.13;4949157;28;20038;-76
2023/11/16 05:51:05;;;;;;;1.40;1.30;;;;;;;6.37;55.69;94193.16;4949357;28;20047;-76
2023/11/16 05:53:31;;;;;;;1.80;1.40;;;;;;;6.46;54.87;94188.09;4955900;28;20466;-77
2023/11/16 05:55:57;;;;;;;1.63;1.45;;;;;;;6.64;54.61;94179.47;4949430;28;20043;-76
2023/11/16 05:58:23;;;;;;;2.45;1.48;;;;;;;6.39;54.54;94183.13;4935615;28;20178;-76
2023/11/16 06:00:48;;;;;;;1.55;1.20;;;;;;;6.39;54.77;94188.41;4955197;28;21297;-76
2023/11/16 06:03:14;;;;;;;2.22;1.50;;;;;;;6.54;54.32;94217.34;4950077;28;20035;-77
2023/11/16 06:05:41;;;;;;;1.35;1.10;;;;;;;5.91;53.78;94119.56;4953069;28;20043;-77
2023/11/16 06:08:07;;;;;;;2.05;1.40;;;;;;;6.25;54.37;94198.81;4957699;28;20047;-75
2023/11/16 06:10:32;;;;;;;6.30;1.63;;;;;;;6.45;54.31;94219.00;4953832;28;20034;-75
2023/11/16 06:12:58;;;;;;;1.95;1.25;;;;;;;6.51;54.25;94223.16;4951564;28;20591;-76
2023/11/16 06:15:30;;;;;;;1.60;1.23;;;;;;;6.56;53.69;94217.03;4953380;28;20134;-76
2023/11/16 06:17:57;;;;;;;2.33;2.10;;;;;;;6.63;54.23;94225.44;4954213;28;20039;-76
2023/11/16 06:20:23;;;;;;;2.45;2.25;;;;;;;6.56;54.83;94220.47;4956081;28;20041;-75
2023/11/16 06:22:50;;;;;;;2.67;1.50;;;;;;;6.57;55.07;94214.13;4949830;28;20040;-76
2023/11/16 06:25:16;;;;;;;1.50;1.40;;;;;;;6.59;54.99;94246.38;4934830;28;20392;-75
2023/11/16 06:27:42;;;;;;;6.65;1.20;;;;;;;6.77;54.17;94236.94;4951435;28;20027;-76
2023/11/16 06:30:08;;;;;;;2.22;1.45;;;;;;;6.79;53.71;94230.31;4952377;28;20043;-76
2023/11/16 06:32:36;;;;;;;1.20;1.10;;;;;;;6.93;54.16;94258.75;4949611;28;20042;-76
2023/11/16 06:35:05;;;;;;;2.13;1.40;;;;;;;6.80;53.34;94209.94;4957947;28;20046;-76
2023/11/16 06:37:31;;;;;;;4.40;2.65;;;;;;;7.04;53.34;94247.81;4955165;28;20045;-76
2023/11/16 06:39:57;;;;;;;1.10;1.00;;;;;;;7.16;52.18;94242.13;4958546;28;20041;-75
2023/11/16 06:42:22;;;;;;;2.17;0.98;;;;;;;7.04;52.22;94247.00;4932647;28;20035;-76
2023/11/16 06:44:48;;;;;;;0.90;0.90;;;;;;;7.16;52.61;94234.97;4945904;28;20117;-75
2023/11/16 06:47:17;;;;;;;2.53;0.90;;;;;;;7.12;51.94;94227.88;4952100;28;20038;-76
2023/11/16 06:49:45;;;;;;;1.85;1.40;;;;;;;7.34;52.14;94244.03;4953106;28;20398;-76
2023/11/16 06:52:14;;;;;;;2.05;1.02;;;;;;;7.44;51.51;94248.41;4951438;28;20112;-75
2023/11/16 06:54:41;;;;;;;2.40;1.00;;;;;;;7.17;51.04;94209.31;4951678;28;20026;-77
2023/11/16 06:57:07;;;;;;;1.45;1.20;;;;;;;7.33;51.77;94237.19;4947982;28;20047;-77
2023/11/16 06:59:34;;;;;;;0.98;0.90;;;;;;;7.36;51.79;94257.78;4951701;28;20041;-76
2023/11/16 07:02:00;;;;;;;2.65;0.95;;;;;;;7.35;51.53;94237.66;4955863;28;20400;-76
2023/11/16 07:04:26;;;;;;;1.77;1.30;;;;;;;7.49;51.24;94254.44;4945480;28;20031;-75
2023/11/16 07:06:52;;;;;;;1.10;1.00;;;;;;;7.37;50.97;94254.06;4948785;28;20446;-76
2023/11/16 07:09:19;;;;;;;1.17;1.00;;;;;;;7.27;51.04;94241.72;4946201;28;20043;-76
2023/11/16 07:11:46;;;;;;;1.83;0.90;;;;;;;7.32;51.39;94259.41;4936552;28;20347;-76
2023/11/16 07:14:11;;;;;;;1.17;0.90;;;;;;;7.31;51.29;94244.59;4942203;28;20120;-75
2023/11/16 07:16:37;;;;;;;1.98;1.30;;;;;;;7.37;51.60;94251.41;4942285;28;20044;-75
2023/11/16 07:19:02;;;;;;;1.20;1.00;;;;;;;7.20;51.26;94229.91;4941255;28;20109;-76
2023/11/16 07:21:28;;;;;;;2.88;1.10;;;;;;;7.45;51.78;94247.34;4939046;28;20489;-75
2023/11/16 07:23:53;;;;;;;1.13;1.08;;;;;;;7.42;51.13;94230.19;4939479;28;20410;-76
2023/11/16 07:26:20;;;;;;;1.23;0.90;;;;;;;7.42;50.77;94232.84;4942790;28;20473;-75
2023/11/16 07:28:47;;;;;;;2.75;0.80;;;;;;;7.45;50.99;94239.41;4939463;28;20362;-75
2023/11/16 07:31:19;;;;;;;1.48;0.68;;;;;;;7.49;50.93;94243.84;4940651;28;20033;-75
2023/11/16 07:33:52;;;;;;;1.58;0.77;;;;;;;7.52;51.13;94245.16;4939649;28;20074;-76
2023/11/16 07:36:27;;;;;;;1.15;0.80;;;;;;;7.78;49.54;94235.09;4942231;28;20039;-76
2023/11/16 07:38:58;;;;;;;1.67;1.23;;;;;;;7.65;49.89;94231.22;4937699;28;20035;-75
2023/11/16 07:41:24;;;;;;;5.15;1.10;;;;;;;7.57;50.41;94230.00;4940100;28;20259;-75
2023/11/16 07:43:50;;;;;;;1.83;0.95;;;;;;;7.61;50.08;94235.50;4938207;28;20741;-76
2023/11/16 07:46:19;;;;;;;3.42;1.10;;;;;;;7.63;50.89;94255.31;4940386;28;20034;-75
2023/11/16 07:48:45;;;;;;;1.73;1.13;;;;;;;7.65;50.67;94263.78;4941367;28;20027;-76
2023/11/16 07:51:12;;;;;;;2.88;1.40;;;;;;;7.54;51.90;94254.38;4940195;28;20103;-76
2023/11/16 07:53:41;;;;;;;1.50;1.08;;;;;;;7.55;51.48;94266.53;4937661;28;20514;-76
2023/11/16 07:56:08;;;;;;;2.10;1.02;;;;;;;7.65;51.44;94274.38;4942856;28;20555;-76
2023/11/16 07:58:34;;;;;;;1.30;1.00;;;;;;;7.73;51.58;94274.88;4936681;28;20125;-76
2023/11/16 08:01:12;;;;;;;2.92;1.52;;;;;;;7.85;51.58;94291.13;4941633;28;20121;-76
2023/11/16 08:03:43;;;;;;;1.58;1.13;;;;;;;7.98;52.21;94287.75;4943262;28;20042;-75
2023/11/16 08:06:13;;;;;;;5.85;3.25;;;;;;;7.98;51.85;94283.25;4937681;28;20237;-76
2023/11/16 08:08:43;;;;;;;1.67;1.30;;;;;;;8.08;51.86;94287.63;4947585;28;20034;-75
2023/11/16 08:11:11;;;;;;;2.08;1.20;;;;;;;8.02;52.07;94278.97;4944022;28;20129;-76
2023/11/16 08:13:45;;;;;;;8.20;4.20;;;;;;;8.22;50.56;94306.28;4940578;28;20644;-75
2023/11/16 08:16:14;;;;;;;4.15;1.88;;;;;;;8.02;50.18;94299.38;4943418;28;20646;-76
2023/11/16 08:18:41;;;;;;;2.05;0.93;;;;;;;8.17;49.69;94301.81;4943949;28;20058;-74
2023/11/16 08:21:07;;;;;;;2.55;1.50;;;;;;;8.14;49.87;94297.88;4940498;28;20569;-74
2023/11/16 08:23:42;;;;;;;0.90;0.90;;;;;;;8.16;50.68;94300.25;4938179;28;20043;-74
2023/11/16 08:26:12;;;;;;;1.50;1.00;;;;;;;8.19;49.91;94304.97;4929534;28;20658;-75
2023/11/16 08:28:40;;;;;;;1.55;1.42;;;;;;;8.06;50.37;94282.63;4959370;28;20466;-74
2023/11/16 08:31:06;;;;;;;4.90;2.83;;;;;;;8.13;51.18;94301.59;4943645;28;20029;-74
2023/11/16 08:33:33;;;;;;;2.15;0.90;;;;;;;8.23;49.48;94284.78;4942899;28;20066;-75
2023/11/16 08:35:59;;;;;;;3.53;1.45;;;;;;;8.15;49.52;94298.66;4934956;28;20226;-75
2023/11/16 08:38:25;;;;;;;2.17;0.80;;;;;;;8.08;50.03;94303.53;4938929;28;20027;-77
2023/11/16 08:41:00;;;;;;;0.95;0.90;;;;;;;7.99;50.59;94305.22;4926754;28;20041;-76
2023/11/16 08:43:32;;;;;;;2.93;1.30;;;;;;;7.96;51.42;94305.81;4944174;28;20085;-76
2023/11/16 08:45:57;;;;;;;3.53;1.20;;;;;;;8.22;51.29;94315.00;4939236;28;20046;-77
2023/11/16 08:48:33;;;;;;;1.20;0.85;;;;;;;7.95;51.08;94298.94;4939095;28;20038;-77
2023/11/16 08:51:05;;;;;;;1.25;1.00;;;;;;;8.02;51.68;94312.63;4938758;28;20408;-77
2023/11/16 08:53:32;;;;;;;1.10;1.00;;;;;;;7.77;51.94;94257.34;4941002;28;20433;-77
2023/11/16 08:56:04;;;;;;;1.65;1.42;;;;;;;8.22;51.35;94296.44;4940626;28;20378;-77
2023/11/16 08:58:47;;;;;;;1.50;1.25;;;;;;;8.42;51.78;94300.66;4936944;28;20042;-77
2023/11/16 09:01:16;;;;;;;1.30;1.20;;;;;;;8.29;51.34;94294.25;4940936;28;20542;-76
2023/11/16 09:03:45;;;;;;;1.33;1.10;;;;;;;8.29;51.46;94302.19;4942477;28;20034;-76
2023/11/16 09:06:15;;;;;;;1.20;1.10;;;;;;;8.35;52.04;94306.34;4941692;28;20039;-77
2023/11/16 09:08:48;;;;;;;1.40;1.00;;;;;;;8.41;51.70;94301.78;4938649;28;20978;-79
2023/11/16 09:11:17;;;;;;;1.20;1.00;;;;;;;8.46;51.50;94307.75;4944376;28;20042;-76
2023/11/16 09:13:44;;;;;;;1.58;1.05;;;;;;;8.52;51.85;94292.56;4944936;28;20443;-76
2023/11/16 09:16:10;;;;;;;3.17;1.50;;;;;;;8.67;50.69;94304.81;4939665;28;20048;-75
2023/11/16 09:18:38;;;;;;;1.77;1.20;;;;;;;8.65;51.39;94307.78;4944454;28;20038;-76
2023/11/16 09:21:06;;;;;;;5.88;1.30;;;;;;;8.77;50.85;94310.75;4945066;28;20424;-75
2023/11/16 09:23:33;;;;;;;1.88;1.00;;;;;;;8.74;48.53;94310.56;4948911;28;20501;-76
2023/11/16 09:25:59;;;;;;;1.75;1.00;;;;;;;8.70;48.39;94309.56;4944823;28;20051;-75
2023/11/16 09:28:25;;;;;;;1.50;0.90;;;;;;;8.67;48.57;94289.69;4945007;28;20479;-76
2023/11/16 09:30:50;;;;;;;0.80;0.80;;;;;;;8.11;47.96;94202.31;4943991;28;20039;-75
2023/11/16 09:33:17;;;;;;;1.45;1.00;;;;;;;8.47;47.92;94282.84;4944318;28;20039;-75
2023/11/16 09:35:46;;;;;;;1.67;0.60;;;;;;;8.79;47.95;94302.50;4948521;28;20034;-76
2023/11/16 09:38:11;;;;;;;0.60;0.60;;;;;;;8.89;47.02;94299.69;4943313;28;20476;-75
2023/11/16 09:40:38;;;;;;;1.23;0.80;;;;;;;8.79;47.36;94302.50;4942961;28;20498;-75
2023/11/16 09:43:20;;;;;;;3.80;0.88;;;;;;;8.80;47.75;94304.09;4962418;28;20037;-77
2023/11/16 09:45:54;;;;;;;1.10;1.00;;;;;;;8.89;47.02;94281.94;4941943;28;20576;-76
2023/11/16 09:48:20;;;;;;;3.95;0.80;;;;;;;8.79;48.37;94294.56;4942116;28;20073;-75
2023/11/16 09:50:53;;;;;;;0.73;0.73;;;;;;;8.82;47.54;94291.31;4935272;28;20042;-74
2023/11/16 09:53:23;;;;;;;2.17;0.98;;;;;;;8.80;46.80;94296.13;4940719;28;20587;-75
2023/11/16 09:55:50;;;;;;;1.20;1.10;;;;;;;8.96;47.32;94290.28;4926869;28;20633;-76
2023/11/16 09:58:23;;;;;;;1.00;0.80;;;;;;;8.92;46.13;94288.50;4928181;28;20039;-76
2023/11/16 10:00:57;;;;;;;1.65;1.00;;;;;;;8.94;46.70;94295.09;4940372;28;20022;-76
2023/11/16 10:03:30;;;;;;;1.73;0.90;;;;;;;8.65;46.07;94272.50;4944030;28;20109;-75
2023/11/16 10:05:56;;;;;;;2.00;0.90;;;;;;;8.82;46.44;94276.19;4940826;28;20054;-76
2023/11/16 10:08:23;;;;;;;1.10;0.90;;;;;;;8.97;46.92;94280.47;4943208;28;20588;-77
2023/11/16 10:10:57;;;;;;;1.00;0.90;;;;;;;8.99;46.39;94286.28;4947255;28;20413;-76
2023/11/16 10:13:27;;;;;;;1.67;1.00;;;;;;;9.00;46.45;94283.31;4951041;28;20030;-75
2023/11/16 10:15:53;;;;;;;1.50;0.90;;;;;;;9.08;45.59;94284.53;4952706;28;20018;-76
2023/11/16 10:18:20;;;;;;;0.80;0.80;;;;;;;8.95;45.34;94266.72;4948915;28;20070;-75
2023/11/16 10:20:46;;;;;;;0.70;0.70;;;;;;;8.93;46.23;94274.94;4951427;28;20034;-76
2023/11/16 10:23:12;;;;;;;0.90;0.90;;;;;;;8.86;45.98;94250.66;4953134;28;20126;-76
2023/11/16 10:25:39;;;;;;;2.13;0.77;;;;;;;9.12;45.94;94272.28;4953130;28;20042;-76
2023/11/16 10:28:19;;;;;;;1.10;1.00;;;;;;;9.14;45.73;94267.47;4955492;28;20042;-75
2023/11/16 10:30:50;;;;;;;0.80;0.80;;;;;;;9.00;45.98;94271.91;4955637;28;20090;-76
2023/11/16 10:33:21;;;;;;;2.83;1.00;;;;;;;9.06;45.75;94262.00;4946676;28;20436;-76
2023/11/16 10:35:52;;;;;;;2.72;1.00;;;;;;;9.23;45.45;94259.63;4951919;28;20031;-76
2023/11/16 10:38:21;;;;;;;2.60;0.90;;;;;;;8.93;45.39;94223.75;4953246;28;20102;-76
2023/11/16 10:40:48;;;;;;;0.80;0.75;;;;;;;9.09;45.27;94242.84;4951381;28;20565;-76
2023/11/16 10:43:27;;;;;;;1.50;0.73;;;;;;;9.01;45.54;94233.69;4937030;28;20396;-75
2023/11/16 10:45:54;;;;;;;1.92;0.85;;;;;;;8.89;46.20;94228.09;4943169;28;20093;-76
2023/11/16 10:48:21;;;;;;;0.80;0.80;;;;;;;8.86;45.95;94223.34;4946845;28;20035;-76
2023/11/16 10:50:47;;;;;;;1.40;1.10;;;;;;;9.01;46.00;94223.06;4933382;28;20035;-76
2023/11/16 10:53:15;;;;;;;0.93;0.90;;;;;;;9.10;45.52;94231.94;4952790;28;20046;-76
2023/11/16 10:55:46;;;;;;;1.67;0.80;;;;;;;9.18;45.47;94233.16;4950118;28;20037;-76
2023/11/16 10:58:13;;;;;;;1.00;0.80;;;;;;;9.29;46.03;94232.66;4950747;28;20062;-76
2023/11/16 11:00:41;;;;;;;1.63;0.80;;;;;;;9.23;45.52;94235.72;4947458;28;20453;-76
2023/11/16 11:03:08;;;;;;;0.80;0.80;;;;;;;9.20;46.00;94226.47;4950249;28;20127;-76
2023/11/16 11:05:36;;;;;;;0.80;0.80;;;;;;;9.28;44.40;94209.09;4952809;28;20189;-76
2023/11/16 11:08:07;;;;;;;0.80;0.80;;;;;;;9.36;44.69;94221.66;4951541;28;20432;-76
2023/11/16 11:10:33;;;;;;;0.90;0.90;;;;;;;9.35;44.79;94218.22;4952983;28;20551;-76
2023/11/16 11:13:10;;;;;;;1.00;0.90;;;;;;;9.45;45.10;94215.38;4955336;28;20061;-77
2023/11/16 11:15:41;;;;;;;2.28;0.80;;;;;;;9.44;44.60;94218.31;4949456;28;20027;-76
2023/11/16 11:18:08;;;;;;;0.80;0.80;;;;;;;9.33;44.27;94203.69;4947189;28;20530;-77
2023/11/16 11:20:40;;;;;;;0.80;0.80;;;;;;;9.36;44.86;94216.34;4952470;28;20039;-77
2023/11/16 11:23:16;;;;;;;1.73;0.90;;;;;;;9.49;45.24;94230.72;4948290;28;20425;-76
2023/11/16 11:25:42;;;;;;;0.93;0.90;;;;;;;9.32;45.07;94220.69;4954851;28;20054;-77
2023/11/16 11:28:14;;;;;;;0.85;0.85;;;;;;;9.29;45.11;94211.44;4949991;28;20031;-76
2023/11/16 11:30:57;;;;;;;0.77;0.77;;;;;;;9.42;45.38;94218.63;4952264;28;20038;-78
2023/11/16 11:33:39;;;;;;;0.98;0.98;;;;;;;9.47;45.68;94214.28;4953148;28;20537;-76
2023/11/16 11:36:31;;;;;;;1.38;0.95;;;;;;;9.51;46.12;94224.03;4955867;28;20458;-77
2023/11/16 11:38:58;;;;;;;0.80;0.80;;;;;;;9.52;45.39;94224.81;4953309;28;20039;-77
2023/11/16 11:41:24;;;;;;;0.93;0.90;;;;;;;9.60;44.86;94203.66;4954694;28;20062;-77
2023/11/16 11:43:49;;;;;;;1.48;1.00;;;;;;;9.67;45.43;94222.66;4953271;28;20628;-78